Time;durP1;ratioP1;P1;durP2;ratioP2;P2;SDS_P1;SDS_P2;PMS_P1;PMS_P2;Temp;Humidity;BMP_temperature;BMP_pressure;BME280_temperature;BME280_humidity;BME280_pressure;Samples;Min_cycle;Max_cycle;Signal;HPM_P1;HPM_P2
2022/11/01 00:01:35;;;;;;;6.23;4.03;;;15.30;99.90;;;;;;470493;252;28316;-70
2022/11/01 00:03:36;;;;;;;7.30;4.60;;;15.30;99.90;;;;;;470446;253;28829;-70
2022/11/01 00:05:37;;;;;;;11.03;4.40;;;15.40;99.90;;;;;;460593;257;28957;-71
2022/11/01 00:07:38;;;;;;;6.10;4.10;;;15.30;99.90;;;;;;470480;252;28872;-70
2022/11/01 00:09:40;;;;;;;11.30;4.10;;;15.30;99.90;;;;;;470495;253;29383;-70
2022/11/01 00:11:41;;;;;;;5.10;3.63;;;15.30;99.90;;;;;;470489;253;29347;-70
2022/11/01 00:13:42;;;;;;;6.33;3.90;;;15.30;99.90;;;;;;470461;252;28871;-70
2022/11/01 00:15:44;;;;;;;5.60;3.80;;;15.30;99.90;;;;;;472354;252;28484;-71
2022/11/01 00:17:45;;;;;;;6.50;4.17;;;15.30;99.90;;;;;;470961;252;28556;-70
2022/11/01 00:19:46;;;;;;;9.13;4.37;;;15.30;99.90;;;;;;470469;252;28887;-70
2022/11/01 00:21:47;;;;;;;6.17;4.03;;;15.30;99.90;;;;;;470489;252;28798;-70
2022/11/01 00:23:48;;;;;;;10.00;4.43;;;15.30;99.90;;;;;;468947;253;28579;-70
2022/11/01 00:25:50;;;;;;;6.20;3.97;;;15.20;99.90;;;;;;470986;251;28616;-71
2022/11/01 00:27:51;;;;;;;7.93;4.40;;;15.20;99.90;;;;;;470974;252;28528;-70
2022/11/01 00:29:52;;;;;;;9.60;3.83;;;15.20;99.90;;;;;;470476;251;28463;-70
2022/11/01 00:31:53;;;;;;;9.37;3.90;;;15.20;99.90;;;;;;470445;252;29364;-70
2022/11/01 00:33:55;;;;;;;7.13;4.07;;;15.20;99.90;;;;;;472192;252;29372;-70
2022/11/01 00:35:56;;;;;;;7.53;3.67;;;15.20;99.90;;;;;;470987;252;29407;-71
2022/11/01 00:37:57;;;;;;;5.07;3.80;;;15.20;99.90;;;;;;470487;252;29000;-70
2022/11/01 00:39:58;;;;;;;6.17;3.70;;;15.10;99.90;;;;;;470246;252;28519;-71
2022/11/01 00:42:00;;;;;;;6.90;4.17;;;15.10;99.90;;;;;;460647;257;29029;-70
2022/11/01 00:44:01;;;;;;;4.23;3.30;;;15.00;99.90;;;;;;470511;252;28844;-69
2022/11/01 00:46:02;;;;;;;3.80;3.40;;;15.00;99.90;;;;;;470240;252;28915;-71
2022/11/01 00:48:03;;;;;;;5.07;4.07;;;15.00;99.90;;;;;;468949;253;28960;-70
2022/11/01 00:50:05;;;;;;;6.63;4.07;;;15.10;99.90;;;;;;466966;254;28421;-70
2022/11/01 00:52:06;;;;;;;9.03;4.53;;;15.10;99.90;;;;;;466975;254;29049;-70
2022/11/01 00:54:07;;;;;;;6.30;3.90;;;15.00;99.90;;;;;;466963;253;29048;-70
2022/11/01 00:56:08;;;;;;;5.10;3.47;;;15.00;99.90;;;;;;466966;254;29401;-71
2022/11/01 00:58:10;;;;;;;5.77;3.80;;;15.00;99.90;;;;;;466964;254;28979;-70
2022/11/01 01:00:11;;;;;;;9.10;4.50;;;14.90;99.90;;;;;;466985;253;28294;-70
2022/11/01 01:02:12;;;;;;;4.23;3.53;;;15.00;99.90;;;;;;466888;254;28899;-70
2022/11/01 01:04:13;;;;;;;5.43;3.80;;;15.00;99.90;;;;;;466909;254;28915;-70
2022/11/01 01:06:15;;;;;;;4.60;3.17;;;15.00;99.90;;;;;;466927;253;28641;-71
2022/11/01 01:08:16;;;;;;;3.87;3.47;;;14.90;99.90;;;;;;466938;254;28853;-70
2022/11/01 01:10:17;;;;;;;8.33;4.10;;;14.90;99.90;;;;;;466926;254;28556;-70
2022/11/01 01:12:18;;;;;;;3.73;3.40;;;15.00;99.90;;;;;;466899;253;28388;-70
2022/11/01 01:14:20;;;;;;;6.63;3.60;;;15.00;99.90;;;;;;466912;254;28843;-70
2022/11/01 01:16:21;;;;;;;3.73;3.10;;;14.90;99.90;;;;;;466929;254;29066;-69
2022/11/01 01:18:22;;;;;;;5.20;4.20;;;14.90;99.90;;;;;;466941;253;29349;-70
2022/11/01 01:20:23;;;;;;;6.93;3.33;;;14.90;99.90;;;;;;466943;254;29329;-70
2022/11/01 01:22:25;;;;;;;5.43;3.97;;;14.90;99.90;;;;;;466926;250;28825;-70
2022/11/01 01:24:26;;;;;;;4.80;4.03;;;14.90;99.90;;;;;;466948;253;28596;-70
2022/11/01 01:26:27;;;;;;;4.53;4.03;;;14.90;99.90;;;;;;466955;254;28400;-71
2022/11/01 01:28:28;;;;;;;4.83;3.60;;;14.90;99.90;;;;;;466950;254;28413;-70
2022/11/01 01:30:30;;;;;;;6.43;4.57;;;14.90;99.90;;;;;;466939;253;28605;-70
2022/11/01 01:32:31;;;;;;;6.20;4.17;;;14.90;99.90;;;;;;466949;254;28555;-70
2022/11/01 01:34:32;;;;;;;5.70;4.13;;;14.90;99.90;;;;;;466945;254;28421;-70
2022/11/01 01:36:33;;;;;;;5.30;4.20;;;14.90;99.90;;;;;;466947;253;28405;-72
2022/11/01 01:38:35;;;;;;;7.53;4.20;;;14.90;99.90;;;;;;466960;254;28469;-70
2022/11/01 01:40:36;;;;;;;10.23;3.90;;;14.90;99.90;;;;;;466940;254;28937;-70
2022/11/01 01:42:37;;;;;;;4.50;3.97;;;14.90;99.90;;;;;;466927;253;29268;-70
2022/11/01 01:44:38;;;;;;;6.53;3.70;;;14.90;99.90;;;;;;466949;254;29087;-70
2022/11/01 01:46:40;;;;;;;7.00;4.37;;;14.80;99.90;;;;;;466955;254;29103;-71
2022/11/01 01:48:41;;;;;;;6.00;4.20;;;14.90;99.90;;;;;;466947;253;28819;-70
2022/11/01 01:50:42;;;;;;;6.83;3.80;;;14.80;99.90;;;;;;466956;254;28862;-70
2022/11/01 01:52:43;;;;;;;4.60;3.33;;;14.80;99.90;;;;;;466944;254;28827;-70
2022/11/01 01:54:45;;;;;;;4.50;3.47;;;14.80;99.90;;;;;;466938;253;28602;-69
2022/11/01 01:56:46;;;;;;;4.37;3.77;;;14.80;99.90;;;;;;466926;254;28614;-71
2022/11/01 01:58:47;;;;;;;4.27;3.80;;;14.80;99.90;;;;;;466952;254;28598;-69
2022/11/01 02:00:48;;;;;;;4.23;3.47;;;14.80;99.90;;;;;;466944;253;28866;-70
2022/11/01 02:02:50;;;;;;;5.70;3.80;;;14.90;99.90;;;;;;466949;254;28516;-70
2022/11/01 02:04:51;;;;;;;5.33;3.87;;;14.90;99.90;;;;;;466638;254;28966;-70
2022/11/01 02:06:52;;;;;;;5.20;4.23;;;14.80;99.90;;;;;;466951;253;29111;-70
2022/11/01 02:08:53;;;;;;;3.90;3.50;;;14.80;99.90;;;;;;466939;254;29278;-70
2022/11/01 02:10:55;;;;;;;3.80;3.50;;;14.80;99.90;;;;;;466943;254;29147;-70
2022/11/01 02:12:56;;;;;;;4.00;3.60;;;14.80;99.90;;;;;;466971;253;28260;-70
2022/11/01 02:14:57;;;;;;;6.67;3.80;;;14.80;99.90;;;;;;466936;254;28977;-70
2022/11/01 02:16:58;;;;;;;5.60;4.07;;;14.80;99.90;;;;;;466982;254;28941;-71
2022/11/01 02:19:00;;;;;;;6.83;4.27;;;14.70;99.90;;;;;;466960;253;28405;-70
2022/11/01 02:21:01;;;;;;;8.10;3.80;;;14.70;99.90;;;;;;466957;254;28419;-71
2022/11/01 02:23:02;;;;;;;5.50;3.93;;;14.70;99.90;;;;;;466959;254;28388;-70
2022/11/01 02:25:03;;;;;;;6.47;4.33;;;14.70;99.90;;;;;;466947;253;28950;-71
2022/11/01 02:27:05;;;;;;;5.10;3.87;;;14.60;99.90;;;;;;466945;254;28564;-71
2022/11/01 02:29:06;;;;;;;7.60;4.50;;;14.40;99.90;;;;;;466937;254;28394;-70
2022/11/01 02:31:07;;;;;;;8.37;4.43;;;14.40;99.90;;;;;;466930;253;28931;-70
2022/11/01 02:33:08;;;;;;;7.17;4.03;;;14.30;99.90;;;;;;466896;254;29260;-70
2022/11/01 02:35:10;;;;;;;5.60;4.13;;;14.20;99.90;;;;;;466859;254;29037;-71
2022/11/01 02:37:11;;;;;;;7.43;4.00;;;14.20;99.90;;;;;;466940;253;28882;-71
2022/11/01 02:39:13;;;;;;;5.20;4.20;;;14.10;99.90;;;;;;466945;254;28572;-70
2022/11/01 02:41:13;;;;;;;6.63;4.00;;;14.10;99.90;;;;;;466892;255;28405;-70
2022/11/01 02:43:15;;;;;;;8.23;4.10;;;14.00;99.90;;;;;;466919;255;28280;-70
2022/11/01 02:45:26;;;;;;;5.90;3.63;;;14.00;99.90;;;;;;466944;254;28200;-70
2022/11/01 02:47:17;;;;;;;6.47;4.57;;;14.00;99.90;;;;;;466329;254;28372;-71
2022/11/01 02:49:18;;;;;;;7.47;4.37;;;14.00;99.90;;;;;;466928;253;28359;-70
2022/11/01 02:51:20;;;;;;;5.97;4.30;;;14.00;99.90;;;;;;466933;254;28325;-70
2022/11/01 02:53:21;;;;;;;7.90;4.57;;;14.00;99.90;;;;;;466923;255;28541;-70
2022/11/01 02:55:28;;;;;;;5.63;4.20;;;14.00;99.90;;;;;;466926;253;28674;-70
2022/11/01 02:57:29;;;;;;;7.70;5.03;;;13.90;99.90;;;;;;466932;254;28858;-71
2022/11/01 02:59:31;;;;;;;5.33;4.23;;;13.90;99.90;;;;;;466934;255;28398;-70
2022/11/01 03:01:33;;;;;;;5.23;3.90;;;13.90;99.90;;;;;;466942;254;28268;-71
2022/11/01 03:03:33;;;;;;;5.37;3.63;;;13.90;99.90;;;;;;466938;254;28201;-70
2022/11/01 03:05:35;;;;;;;4.70;3.80;;;13.90;99.90;;;;;;466950;253;28272;-70
2022/11/01 03:07:36;;;;;;;6.57;3.77;;;13.90;99.90;;;;;;466952;254;28210;-71
2022/11/01 03:09:37;;;;;;;9.03;4.53;;;13.90;99.90;;;;;;466946;254;28352;-70
2022/11/01 03:11:38;;;;;;;4.30;3.53;;;13.80;99.90;;;;;;466933;254;28323;-70
2022/11/01 03:13:40;;;;;;;9.37;4.70;;;13.90;99.90;;;;;;466913;254;28184;-70
2022/11/01 03:15:41;;;;;;;8.97;4.47;;;13.90;99.90;;;;;;466951;253;28677;-69
2022/11/01 03:17:42;;;;;;;4.67;3.70;;;13.80;99.90;;;;;;466936;254;28679;-71
2022/11/01 03:19:43;;;;;;;8.60;4.10;;;13.90;99.90;;;;;;466950;250;28617;-70
2022/11/01 03:21:45;;;;;;;4.70;3.90;;;13.90;99.90;;;;;;466962;253;28354;-70
2022/11/01 03:23:46;;;;;;;7.53;3.80;;;13.90;99.90;;;;;;466944;254;28402;-70
2022/11/01 03:25:47;;;;;;;6.73;4.30;;;13.90;99.90;;;;;;466926;254;28282;-70
2022/11/01 03:27:48;;;;;;;6.67;3.80;;;13.90;99.90;;;;;;466939;253;28228;-71
2022/11/01 03:29:55;;;;;;;6.07;3.57;;;13.90;99.90;;;;;;466934;254;28247;-70
2022/11/01 03:31:51;;;;;;;6.90;3.87;;;13.90;99.90;;;;;;466659;254;28207;-71
2022/11/01 03:33:52;;;;;;;7.10;3.67;;;13.90;99.90;;;;;;466954;253;28206;-70
2022/11/01 03:35:53;;;;;;;4.03;3.60;;;13.90;99.90;;;;;;466962;255;28245;-70
2022/11/01 03:37:55;;;;;;;7.10;3.67;;;13.90;99.90;;;;;;466965;253;28200;-71
2022/11/01 03:39:56;;;;;;;3.90;3.50;;;13.90;99.90;;;;;;466945;255;28840;-71
2022/11/01 03:41:57;;;;;;;3.97;3.67;;;13.90;99.90;;;;;;466944;254;28778;-71
2022/11/01 03:43:58;;;;;;;4.97;4.20;;;13.80;99.90;;;;;;466955;253;29521;-71
2022/11/01 03:46:00;;;;;;;5.00;3.70;;;13.80;99.90;;;;;;466941;254;28728;-70
2022/11/01 03:48:01;;;;;;;5.60;4.10;;;13.80;99.90;;;;;;466952;254;28224;-71
2022/11/01 03:50:02;;;;;;;5.33;3.77;;;13.80;99.90;;;;;;466981;253;28265;-70
2022/11/01 03:52:03;;;;;;;6.47;3.73;;;13.80;99.90;;;;;;466977;254;28283;-70
2022/11/01 03:54:09;;;;;;;5.87;4.10;;;13.80;99.90;;;;;;466977;254;28248;-70
2022/11/01 03:56:06;;;;;;;5.60;4.03;;;13.80;99.90;;;;;;466721;254;28179;-70
2022/11/01 03:58:07;;;;;;;5.17;4.00;;;13.90;99.90;;;;;;466958;254;28283;-70
2022/11/01 04:00:08;;;;;;;5.23;3.77;;;13.90;99.90;;;;;;466984;253;28248;-70
2022/11/01 04:02:10;;;;;;;6.20;4.20;;;13.80;99.90;;;;;;466979;254;28315;-71
2022/11/01 04:04:11;;;;;;;5.73;3.97;;;13.80;99.90;;;;;;466940;254;28202;-70
2022/11/01 04:06:12;;;;;;;8.10;3.83;;;13.80;99.90;;;;;;466864;253;28715;-70
2022/11/01 04:08:13;;;;;;;3.87;3.57;;;13.80;99.90;;;;;;466941;254;28794;-71
2022/11/01 04:10:15;;;;;;;6.83;4.17;;;13.90;99.90;;;;;;466948;253;28851;-70
2022/11/01 04:12:16;;;;;;;6.40;4.13;;;13.90;99.90;;;;;;466937;254;28427;-70
2022/11/01 04:21:16;;;;;;;4.13;3.73;;;13.90;99.90;;;;;;468963;253;28249;-70
2022/11/01 04:23:17;;;;;;;4.30;3.90;;;14.00;99.90;;;;;;468384;252;28636;-70
2022/11/01 04:25:18;;;;;;;6.87;3.47;;;13.90;99.90;;;;;;470477;252;28650;-71
2022/11/01 04:27:20;;;;;;;4.07;3.67;;;13.90;99.90;;;;;;470493;253;28887;-72
2022/11/01 04:29:22;;;;;;;4.83;3.80;;;;;;;;;;470495;253;28673;-70
2022/11/01 04:31:23;;;;;;;4.53;3.63;;;13.90;99.90;;;;;;470485;252;26398;-70
2022/11/01 04:33:25;;;;;;;3.97;3.57;;;13.90;99.90;;;;;;470469;253;28288;-70
2022/11/01 04:35:26;;;;;;;4.57;3.33;;;13.90;99.90;;;;;;470476;252;28200;-71
2022/11/01 04:37:27;;;;;;;5.40;3.93;;;13.90;99.90;;;;;;472364;252;28633;-70
2022/11/01 04:39:28;;;;;;;4.13;3.73;;;13.90;99.90;;;;;;470976;252;28751;-71
2022/11/01 04:41:30;;;;;;;4.93;3.30;;;14.00;99.90;;;;;;470487;252;28739;-70
2022/11/01 04:43:31;;;;;;;4.83;3.20;;;14.00;99.90;;;;;;470481;252;28297;-71
2022/11/01 04:45:32;;;;;;;3.93;3.63;;;14.00;99.90;;;;;;468955;253;28447;-72
2022/11/01 04:47:33;;;;;;;4.10;3.70;;;14.00;99.90;;;;;;470963;251;28248;-70
2022/11/01 04:49:35;;;;;;;3.60;3.30;;;14.00;99.90;;;;;;470978;252;28359;-71
2022/11/01 04:51:39;;;;;;;3.83;3.37;;;;;;;;;;470493;251;28121;-71
2022/11/01 04:53:38;;;;;;;4.60;3.57;;;13.90;99.90;;;;;;470371;252;27971;-72
2022/11/01 04:55:40;;;;;;;5.93;4.07;;;14.00;99.90;;;;;;470452;252;28347;-70
2022/11/01 04:57:41;;;;;;;4.50;3.03;;;13.90;99.90;;;;;;468967;253;28330;-70
2022/11/01 04:59:42;;;;;;;4.50;3.10;;;14.00;99.90;;;;;;470978;251;28342;-70
2022/11/01 05:01:44;;;;;;;4.10;3.70;;;14.00;99.90;;;;;;470957;252;28356;-70
2022/11/01 05:03:45;;;;;;;3.27;3.07;;;14.00;99.90;;;;;;470186;252;28174;-72
2022/11/01 05:05:46;;;;;;;3.90;3.37;;;14.00;99.90;;;;;;470481;252;28245;-70
2022/11/01 05:07:47;;;;;;;3.50;3.20;;;14.00;99.90;;;;;;472344;252;28312;-70
2022/11/01 05:09:48;;;;;;;6.07;3.73;;;14.00;99.90;;;;;;470955;246;28221;-70
2022/11/01 05:11:50;;;;;;;3.93;3.23;;;14.00;99.90;;;;;;470461;252;29107;-70
2022/11/01 05:13:52;;;;;;;3.83;3.53;;;;;;;;;;470479;252;28891;-70
2022/11/01 05:15:53;;;;;;;4.60;3.20;;;14.00;99.90;;;;;;460238;257;26550;-70
2022/11/01 05:17:55;;;;;;;5.03;3.60;;;14.00;99.90;;;;;;470485;253;28134;-70
2022/11/01 05:19:56;;;;;;;5.40;3.27;;;14.00;99.90;;;;;;470463;253;28298;-70
2022/11/01 05:21:58;;;;;;;6.13;4.03;;;14.00;99.90;;;;;;470485;253;28403;-71
2022/11/01 05:23:58;;;;;;;3.70;3.40;;;14.00;99.90;;;;;;470445;252;28240;-70
2022/11/01 05:26:00;;;;;;;4.50;3.87;;;14.00;99.90;;;;;;470480;253;28912;-71
2022/11/01 05:28:02;;;;;;;6.03;3.50;;;14.00;99.90;;;;;;470482;253;28914;-70
2022/11/01 05:30:02;;;;;;;5.33;3.80;;;14.10;99.90;;;;;;470449;253;28756;-71
2022/11/01 05:32:03;;;;;;;3.90;3.50;;;14.10;99.90;;;;;;470441;252;28170;-71
2022/11/01 05:34:05;;;;;;;4.50;4.10;;;14.10;99.90;;;;;;468925;253;28434;-70
2022/11/01 05:36:06;;;;;;;3.50;3.20;;;14.10;99.90;;;;;;470919;251;28597;-70
2022/11/01 05:38:07;;;;;;;5.40;3.63;;;14.10;99.90;;;;;;470974;252;28367;-70
2022/11/01 05:40:08;;;;;;;5.83;3.60;;;14.10;99.90;;;;;;470487;252;28344;-70
2022/11/01 05:42:10;;;;;;;4.27;3.77;;;14.10;99.90;;;;;;470514;252;28177;-71
2022/11/01 05:44:11;;;;;;;3.97;3.40;;;14.10;99.90;;;;;;472354;252;28135;-70
2022/11/01 05:46:12;;;;;;;3.70;3.40;;;14.10;99.90;;;;;;470998;252;28270;-70
2022/11/01 05:48:13;;;;;;;4.93;3.83;;;14.10;99.90;;;;;;470520;252;28272;-70
2022/11/01 05:50:15;;;;;;;3.47;3.20;;;14.10;99.90;;;;;;470494;252;28832;-71
2022/11/01 05:52:16;;;;;;;3.70;3.40;;;14.10;99.90;;;;;;468976;253;28738;-72
2022/11/01 05:54:17;;;;;;;6.30;3.47;;;14.10;99.90;;;;;;470978;252;29591;-70
2022/11/01 05:56:18;;;;;;;3.70;3.40;;;14.10;99.90;;;;;;470980;252;28876;-70
2022/11/01 05:58:20;;;;;;;3.57;3.27;;;14.10;99.90;;;;;;470483;251;28349;-69
2022/11/01 06:00:21;;;;;;;5.20;3.63;;;14.10;99.90;;;;;;470485;253;28374;-70
2022/11/01 06:02:22;;;;;;;3.53;3.23;;;14.10;99.90;;;;;;470465;253;28410;-70
2022/11/01 06:04:23;;;;;;;5.00;3.47;;;14.10;99.90;;;;;;460624;257;28247;-70
2022/11/01 06:06:25;;;;;;;3.70;3.40;;;14.10;99.90;;;;;;470466;252;28199;-70
2022/11/01 06:08:26;;;;;;;4.10;2.73;;;14.10;99.90;;;;;;472305;252;28256;-70
2022/11/01 06:10:27;;;;;;;4.00;3.10;;;14.10;99.90;;;;;;470974;252;28341;-70
2022/11/01 06:12:28;;;;;;;6.30;3.60;;;14.10;99.90;;;;;;470486;252;28168;-70
2022/11/01 06:14:30;;;;;;;4.10;3.67;;;14.10;99.90;;;;;;470466;253;28235;-70
2022/11/01 06:16:31;;;;;;;3.70;3.40;;;14.10;99.90;;;;;;470475;252;28968;-70
2022/11/01 06:18:32;;;;;;;3.63;3.33;;;14.10;99.90;;;;;;472342;252;28778;-71
2022/11/01 06:20:35;;;;;;;4.07;2.83;;;14.10;99.90;;;;;;470972;252;28870;-70
2022/11/01 06:22:35;;;;;;;3.17;2.67;;;14.10;99.90;;;;;;470389;252;28378;-70
2022/11/01 06:24:36;;;;;;;3.50;3.10;;;14.10;99.90;;;;;;470472;253;28223;-71
2022/11/01 06:26:37;;;;;;;3.80;3.10;;;14.10;99.90;;;;;;470334;252;28248;-70
2022/11/01 06:28:38;;;;;;;3.00;2.80;;;14.10;99.90;;;;;;472356;252;28342;-70
2022/11/01 06:30:40;;;;;;;3.17;2.87;;;14.20;99.90;;;;;;470994;252;28221;-70
2022/11/01 06:32:41;;;;;;;5.30;2.80;;;14.20;99.90;;;;;;470495;253;28423;-70
2022/11/01 06:34:42;;;;;;;3.67;3.00;;;14.10;99.90;;;;;;470480;253;28292;-71
2022/11/01 06:36:43;;;;;;;3.40;2.60;;;14.20;99.90;;;;;;470484;252;28494;-71
2022/11/01 06:38:45;;;;;;;3.80;3.10;;;14.10;99.90;;;;;;472320;252;28186;-72
2022/11/01 06:40:46;;;;;;;4.00;3.03;;;14.20;99.90;;;;;;470973;252;28790;-70
2022/11/01 06:42:47;;;;;;;3.40;3.10;;;14.20;99.90;;;;;;470497;252;29082;-70
2022/11/01 06:44:48;;;;;;;3.73;3.27;;;14.20;99.90;;;;;;470477;252;28596;-70
2022/11/01 06:46:50;;;;;;;3.20;2.53;;;14.20;99.90;;;;;;468948;253;28492;-70
2022/11/01 06:48:51;;;;;;;3.77;2.90;;;14.20;99.90;;;;;;470947;251;28580;-71
2022/11/01 06:50:54;;;;;;;3.03;2.73;;;;;;;;;;470989;252;28397;-70
2022/11/01 06:52:55;;;;;;;5.73;2.80;;;14.20;99.90;;;;;;460210;258;26654;-70
2022/11/01 06:54:56;;;;;;;3.80;2.97;;;14.20;99.90;;;;;;470473;252;28946;-70
2022/11/01 06:56:57;;;;;;;4.90;3.33;;;14.20;99.90;;;;;;470457;253;29048;-70
2022/11/01 06:58:59;;;;;;;3.37;3.10;;;14.20;99.90;;;;;;470479;253;28897;-69
2022/11/01 07:01:00;;;;;;;3.90;3.17;;;14.30;99.90;;;;;;472327;252;28292;-72
2022/11/01 07:03:01;;;;;;;4.10;2.80;;;14.30;99.90;;;;;;470978;252;28229;-70
2022/11/01 07:05:05;;;;;;;4.23;3.17;;;14.30;99.90;;;;;;470466;253;28591;-70
2022/11/01 07:07:06;;;;;;;3.60;2.67;;;14.30;99.90;;;;;;470249;253;28266;-70
2022/11/01 07:09:07;;;;;;;2.87;2.60;;;14.30;99.90;;;;;;470268;252;28374;-71
2022/11/01 07:11:09;;;;;;;4.00;2.90;;;14.30;99.90;;;;;;472360;252;28481;-69
2022/11/01 07:13:10;;;;;;;4.83;3.10;;;14.30;99.90;;;;;;471003;252;29100;-71
2022/11/01 07:15:11;;;;;;;2.60;2.40;;;14.30;99.90;;;;;;470502;252;28773;-70
2022/11/01 07:17:12;;;;;;;3.17;2.80;;;14.30;99.90;;;;;;470518;253;29006;-70
2022/11/01 07:19:14;;;;;;;3.00;2.70;;;14.30;99.90;;;;;;470531;252;30786;-70
2022/11/01 07:21:15;;;;;;;3.03;2.77;;;14.30;99.90;;;;;;472386;252;28344;-70
2022/11/01 07:23:16;;;;;;;2.60;2.30;;;14.30;99.90;;;;;;471001;252;28283;-70
2022/11/01 07:25:17;;;;;;;5.80;2.90;;;14.30;99.90;;;;;;470095;252;28489;-70
2022/11/01 07:27:19;;;;;;;3.00;2.43;;;14.40;99.90;;;;;;470491;252;28503;-70
2022/11/01 07:29:20;;;;;;;2.70;2.50;;;14.40;99.90;;;;;;468964;253;28367;-70
2022/11/01 07:31:21;;;;;;;6.30;2.63;;;14.40;99.90;;;;;;471008;252;28677;-70
2022/11/01 07:33:22;;;;;;;2.67;2.47;;;14.30;99.90;;;;;;471006;252;28388;-70
2022/11/01 07:35:24;;;;;;;2.93;2.73;;;14.30;99.90;;;;;;470474;252;28528;-70
2022/11/01 07:37:25;;;;;;;2.50;2.30;;;14.40;99.90;;;;;;470471;252;28904;-70
2022/11/01 07:39:26;;;;;;;2.60;2.40;;;14.30;99.90;;;;;;468970;253;29994;-70
2022/11/01 07:41:27;;;;;;;2.97;2.77;;;14.30;99.90;;;;;;470988;251;29050;-70
2022/11/01 07:43:29;;;;;;;2.53;2.37;;;14.30;99.90;;;;;;470985;252;28992;-70
2022/11/01 07:45:30;;;;;;;3.40;2.50;;;14.30;99.90;;;;;;470516;251;28368;-69
2022/11/01 07:47:31;;;;;;;2.70;2.50;;;14.30;99.90;;;;;;472353;252;28379;-70
2022/11/01 07:49:32;;;;;;;3.50;2.73;;;14.30;99.90;;;;;;470963;252;28487;-70
2022/11/01 07:51:34;;;;;;;9.00;2.90;;;14.30;99.90;;;;;;470503;252;28462;-70
2022/11/01 07:53:35;;;;;;;5.67;2.80;;;14.30;99.90;;;;;;470450;252;28500;-70
2022/11/01 07:55:36;;;;;;;4.53;3.10;;;14.30;99.90;;;;;;468950;253;28313;-70
2022/11/01 07:57:37;;;;;;;7.47;2.70;;;14.20;99.90;;;;;;470980;251;28723;-70
2022/11/01 07:59:39;;;;;;;3.10;2.90;;;14.20;99.90;;;;;;470982;252;28432;-70
2022/11/01 08:01:40;;;;;;;2.80;2.37;;;14.10;99.90;;;;;;470470;252;28565;-71
2022/11/01 08:03:41;;;;;;;2.73;2.30;;;14.10;99.90;;;;;;470477;253;28821;-71
2022/11/01 08:05:42;;;;;;;2.70;2.50;;;14.00;99.90;;;;;;470480;253;28876;-70
2022/11/01 08:07:44;;;;;;;2.90;2.70;;;14.00;99.90;;;;;;470437;252;28882;-71
2022/11/01 08:09:46;;;;;;;4.50;2.83;;;13.90;99.90;;;;;;468985;253;28427;-71
2022/11/01 08:11:46;;;;;;;3.07;2.60;;;13.90;99.90;;;;;;470935;251;28287;-71
2022/11/01 08:13:47;;;;;;;3.10;2.80;;;13.80;99.90;;;;;;470963;252;28448;-70
2022/11/01 08:15:49;;;;;;;3.33;2.53;;;13.80;99.90;;;;;;470468;251;28256;-70
2022/11/01 08:17:50;;;;;;;4.53;2.27;;;13.80;99.90;;;;;;470480;253;28415;-71
2022/11/01 08:19:51;;;;;;;2.30;2.10;;;13.80;99.90;;;;;;470419;253;28303;-70
2022/11/01 08:21:52;;;;;;;2.43;2.27;;;13.80;99.90;;;;;;470410;252;28383;-70
2022/11/01 08:23:54;;;;;;;2.57;2.37;;;13.80;99.90;;;;;;472307;252;28400;-70
2022/11/01 08:25:55;;;;;;;2.40;2.20;;;13.80;99.90;;;;;;470941;252;28313;-70
2022/11/01 08:27:56;;;;;;;3.80;2.50;;;13.80;99.90;;;;;;470326;252;28690;-70
2022/11/01 08:29:57;;;;;;;2.43;2.23;;;13.70;99.90;;;;;;470435;252;28706;-70
2022/11/01 08:31:59;;;;;;;4.77;2.57;;;13.60;99.90;;;;;;468939;253;28870;-71
2022/11/01 08:34:00;;;;;;;3.37;2.73;;;13.50;99.90;;;;;;470993;251;28859;-72
2022/11/01 08:36:01;;;;;;;2.27;2.07;;;13.30;99.90;;;;;;470969;252;28228;-70
2022/11/01 08:38:02;;;;;;;3.10;2.23;;;13.30;99.90;;;;;;470499;251;28264;-70
2022/11/01 08:40:04;;;;;;;2.37;2.17;;;13.20;99.90;;;;;;470498;252;28130;-70
2022/11/01 08:42:05;;;;;;;1.83;1.73;;;13.10;99.90;;;;;;472333;252;28284;-70
2022/11/01 08:44:06;;;;;;;7.50;2.00;;;12.90;99.90;;;;;;470976;252;28710;-71
2022/11/01 08:46:09;;;;;;;2.13;1.80;;;;;;;;;;470477;252;28284;-70
2022/11/01 08:48:10;;;;;;;1.80;1.63;;;12.60;99.90;;;;;;470477;253;26520;-68
2022/11/01 08:50:11;;;;;;;2.77;1.90;;;12.70;99.90;;;;;;470449;253;28168;-70
2022/11/01 08:52:12;;;;;;;1.90;1.73;;;12.70;99.90;;;;;;470490;252;28215;-72
2022/11/01 08:54:14;;;;;;;1.70;1.60;;;12.70;99.90;;;;;;472348;252;28464;-70
2022/11/01 08:56:15;;;;;;;3.03;2.00;;;12.60;99.90;;;;;;470979;252;28693;-70
2022/11/01 08:58:16;;;;;;;2.37;1.77;;;12.60;99.90;;;;;;470487;252;28268;-70
2022/11/01 09:00:17;;;;;;;3.50;2.23;;;12.60;99.90;;;;;;470463;253;28515;-71
2022/11/01 09:02:19;;;;;;;1.97;1.87;;;12.60;99.90;;;;;;468942;253;29125;-71
2022/11/01 09:04:20;;;;;;;3.83;1.93;;;12.70;99.90;;;;;;470511;251;28718;-70
2022/11/01 09:06:21;;;;;;;2.80;2.50;;;12.70;99.90;;;;;;470917;252;29020;-71
2022/11/01 09:08:22;;;;;;;2.20;2.00;;;12.80;99.90;;;;;;470487;251;28843;-70
2022/11/01 09:10:24;;;;;;;2.23;1.73;;;12.90;99.90;;;;;;470482;253;28248;-70
2022/11/01 09:12:25;;;;;;;1.60;1.50;;;12.90;99.90;;;;;;472345;252;28499;-71
2022/11/01 09:14:26;;;;;;;1.83;1.60;;;13.00;99.90;;;;;;470986;252;28104;-70
2022/11/01 09:16:27;;;;;;;3.70;1.43;;;13.00;99.90;;;;;;470464;253;28258;-71
2022/11/01 09:18:29;;;;;;;2.50;1.87;;;13.10;99.90;;;;;;470497;252;28774;-70
2022/11/01 09:20:30;;;;;;;1.83;1.67;;;13.20;99.90;;;;;;468939;253;28538;-71
2022/11/01 09:22:31;;;;;;;1.73;1.60;;;13.20;99.90;;;;;;470990;252;28378;-70
2022/11/01 09:24:32;;;;;;;7.93;1.83;;;13.20;99.90;;;;;;470986;252;29435;-70
2022/11/01 09:26:35;;;;;;;4.70;2.20;;;;;;;;;;470490;251;29371;-70
2022/11/01 09:28:36;;;;;;;3.08;1.42;;;13.20;99.90;;;;;;468467;252;47327;-70
2022/11/01 09:30:37;;;;;;;1.80;1.70;;;13.30;99.90;;;;;;470473;252;27444;-71
2022/11/01 09:32:39;;;;;;;2.40;1.90;;;13.30;99.90;;;;;;468964;253;28344;-70
2022/11/01 09:34:40;;;;;;;2.00;1.90;;;13.40;99.90;;;;;;470992;251;28364;-71
2022/11/01 09:36:41;;;;;;;2.70;1.80;;;13.40;99.90;;;;;;470979;252;28375;-70
2022/11/01 09:38:42;;;;;;;2.10;2.00;;;13.40;99.90;;;;;;470493;251;28664;-70
2022/11/01 09:40:45;;;;;;;1.90;1.80;;;13.30;99.90;;;;;;469872;252;29057;-71
2022/11/01 09:42:45;;;;;;;1.70;1.60;;;13.30;99.90;;;;;;472204;252;28698;-70
2022/11/01 09:44:46;;;;;;;2.50;1.87;;;13.30;99.90;;;;;;470946;252;28264;-71
2022/11/01 09:46:47;;;;;;;4.00;1.90;;;13.20;99.90;;;;;;470514;252;28129;-70
2022/11/01 09:48:49;;;;;;;3.17;1.90;;;13.20;99.90;;;;;;470469;252;28262;-70
2022/11/01 09:50:50;;;;;;;2.80;1.70;;;13.20;99.90;;;;;;468944;253;28250;-70
2022/11/01 09:52:51;;;;;;;2.20;1.70;;;13.20;99.90;;;;;;470991;251;28356;-70
2022/11/01 09:54:53;;;;;;;4.60;1.80;;;13.30;99.90;;;;;;470957;252;28387;-70
2022/11/01 09:56:54;;;;;;;2.77;1.80;;;13.40;99.90;;;;;;470468;252;28191;-70
2022/11/01 09:58:55;;;;;;;2.00;1.60;;;13.50;99.90;;;;;;470467;252;28796;-70
2022/11/01 10:00:56;;;;;;;3.73;1.80;;;13.50;99.90;;;;;;472329;252;28861;-72
2022/11/01 10:02:57;;;;;;;2.50;1.90;;;13.30;99.90;;;;;;470966;252;28685;-70
2022/11/01 10:04:59;;;;;;;2.03;1.77;;;13.30;99.90;;;;;;470481;252;28769;-70
2022/11/01 10:07:00;;;;;;;1.80;1.70;;;13.40;99.90;;;;;;470472;252;28447;-70
2022/11/01 10:09:02;;;;;;;1.50;1.40;;;13.40;99.90;;;;;;468934;253;28326;-70
2022/11/01 10:11:02;;;;;;;2.13;1.33;;;13.20;99.90;;;;;;470909;251;28474;-71
2022/11/01 10:13:04;;;;;;;3.27;1.80;;;13.00;99.90;;;;;;470940;252;29004;-70
2022/11/01 10:15:05;;;;;;;1.50;1.40;;;12.90;99.90;;;;;;470453;251;28820;-70
2022/11/01 10:17:06;;;;;;;3.27;1.67;;;12.90;99.90;;;;;;472307;252;28236;-70
2022/11/01 10:19:09;;;;;;;5.60;1.67;;;12.80;99.90;;;;;;470940;252;28272;-71
2022/11/01 10:21:09;;;;;;;2.40;1.63;;;12.90;99.90;;;;;;470404;252;28261;-70
2022/11/01 10:23:10;;;;;;;4.20;1.70;;;12.80;99.90;;;;;;470507;253;29325;-70
2022/11/01 10:25:11;;;;;;;1.60;1.50;;;12.90;99.90;;;;;;472365;252;28643;-70
2022/11/01 10:27:12;;;;;;;1.73;1.60;;;12.90;99.90;;;;;;470955;252;28626;-70
2022/11/01 10:29:14;;;;;;;1.73;1.40;;;13.00;99.90;;;;;;470470;252;28696;-70
2022/11/01 10:31:15;;;;;;;3.90;1.77;;;13.00;99.90;;;;;;470485;252;28135;-70
2022/11/01 10:33:16;;;;;;;2.90;1.50;;;12.90;99.90;;;;;;472311;252;28353;-70
2022/11/01 10:35:17;;;;;;;1.77;1.50;;;12.90;99.90;;;;;;470979;252;28261;-70
2022/11/01 10:37:19;;;;;;;2.10;1.40;;;13.00;99.90;;;;;;470482;251;28460;-70
2022/11/01 10:39:20;;;;;;;1.60;1.50;;;12.90;99.90;;;;;;470466;252;28295;-70